createdAt,value
2017-11-15T06:50:08.545Z,36.00
2017-11-15T06:51:01.996Z,37.00
2017-11-15T06:52:00.886Z,37.10
2017-11-15T06:53:02.013Z,36.30
2017-11-15T06:54:00.898Z,36.90
2017-11-15T06:55:01.005Z,36.60
2017-11-15T06:56:00.921Z,34.90
2017-11-15T06:57:01.014Z,35.30
2017-11-15T06:58:00.938Z,36.80
2017-11-15T06:59:01.176Z,34.90
2017-11-15T07:00:00.947Z,35.40
2017-11-15T07:01:00.958Z,35.50
2017-11-15T07:02:00.964Z,35.50
2017-11-15T07:03:00.974Z,34.60
2017-11-15T07:04:00.978Z,36.10
2017-11-15T07:05:00.986Z,36.20
2017-11-15T07:06:00.991Z,36.70
2017-11-15T07:07:00.999Z,35.60
2017-11-15T07:08:01.019Z,38.10
2017-11-15T07:09:01.081Z,37.90
2017-11-15T07:10:01.022Z,35.90
2017-11-15T07:11:01.029Z,35.50
2017-11-15T07:12:01.048Z,37.00
2017-11-15T07:13:01.057Z,36.70
2017-11-15T07:14:01.058Z,35.80
2017-11-15T07:15:01.062Z,37.00
2017-11-15T07:16:06.054Z,36.50
2017-11-15T07:17:01.078Z,38.00
2017-11-15T07:18:03.197Z,36.80
2017-11-15T07:19:01.100Z,37.70
2017-11-15T07:20:01.162Z,36.20
2017-11-15T07:21:01.109Z,35.30
2017-11-15T07:22:01.181Z,36.40
2017-11-15T07:23:01.120Z,36.30
2017-11-15T07:24:08.154Z,37.00
2017-11-15T07:25:01.136Z,36.60
2017-11-15T07:26:01.262Z,36.80
2017-11-15T07:27:01.154Z,35.70
2017-11-15T07:28:01.274Z,35.80
2017-11-15T07:29:01.175Z,36.50
2017-11-15T07:30:01.286Z,36.80
2017-11-15T07:31:01.185Z,36.00
2017-11-15T07:32:01.299Z,36.40
2017-11-15T07:33:01.203Z,37.80
2017-11-15T07:34:01.309Z,35.00
2017-11-15T07:35:01.210Z,35.40
2017-11-15T07:36:01.221Z,36.50
2017-11-15T07:37:01.221Z,34.80
2017-11-15T07:38:01.294Z,35.40
2017-11-15T07:39:01.256Z,36.10
2017-11-15T07:40:01.246Z,35.60
2017-11-15T07:41:02.305Z,35.80
2017-11-15T07:57:26.277Z,32.00
2017-11-15T07:58:26.324Z,33.90
2017-11-15T07:59:26.275Z,34.20
2017-11-15T08:00:28.388Z,32.30
2017-11-15T08:01:26.289Z,33.00
2017-11-15T08:02:26.305Z,34.30
2017-11-15T08:03:26.312Z,33.50
2017-11-15T08:04:26.321Z,32.30
2017-11-15T08:05:26.332Z,32.70
2017-11-15T08:06:27.407Z,32.70
2017-11-15T08:07:26.337Z,32.60
2017-11-15T08:08:26.395Z,32.90
2017-11-15T08:09:26.356Z,32.90
2017-11-15T08:10:28.464Z,33.40
2017-11-15T08:11:26.363Z,32.70
2017-11-15T08:12:27.439Z,32.50
2017-11-15T08:13:26.377Z,32.50
2017-11-15T08:14:26.383Z,32.30
2017-11-15T08:15:26.393Z,31.70
2017-11-15T08:16:26.444Z,32.20
2017-11-15T08:17:26.420Z,32.40
2017-11-15T08:18:26.463Z,32.40
2017-11-15T08:19:26.421Z,32.60
2017-11-15T08:20:26.467Z,31.20
2017-11-15T08:21:26.435Z,32.10
2017-11-15T08:22:27.506Z,32.00
2017-11-15T08:23:26.450Z,32.60
2017-11-15T08:24:26.568Z,32.00
2017-11-15T08:25:26.464Z,33.40
2017-11-15T08:26:26.581Z,32.40
2017-11-15T08:27:26.509Z,33.20
2017-11-15T08:28:26.492Z,31.30
2017-11-15T08:29:26.501Z,32.70
2017-11-15T08:30:26.609Z,33.10
2017-11-15T08:31:26.511Z,32.90
2017-11-15T08:32:26.623Z,33.00
2017-11-15T08:33:26.525Z,31.70
2017-11-15T08:34:26.597Z,32.00
2017-11-15T08:35:26.528Z,32.20
2017-11-15T08:36:26.612Z,32.70
2017-11-15T08:37:26.553Z,34.40
2017-11-15T08:38:28.674Z,33.50
2017-11-15T08:39:26.568Z,32.90
2017-11-15T08:40:26.676Z,32.50
2017-11-15T08:41:26.586Z,32.80
2017-11-15T08:42:26.587Z,34.10
2017-11-15T08:43:26.595Z,33.70
2017-11-15T08:44:28.651Z,34.10
2017-11-15T08:45:27.129Z,33.30
2017-11-15T08:46:26.699Z,33.20
2017-11-15T08:47:26.632Z,34.30
2017-11-15T08:48:28.662Z,33.30
2017-11-15T08:49:26.642Z,33.70
2017-11-15T08:50:26.732Z,32.60
2017-11-15T08:51:26.648Z,34.70
2017-11-15T08:52:28.783Z,34.40
2017-11-15T08:53:26.677Z,34.10
2017-11-15T08:54:27.777Z,35.60
2017-11-15T08:55:27.130Z,32.50
2017-11-15T08:56:26.689Z,32.90
2017-11-15T08:57:26.709Z,33.50
2017-11-15T08:58:26.761Z,33.30
2017-11-15T08:59:26.718Z,32.70
2017-11-15T09:00:26.791Z,31.70
2017-11-15T09:01:26.741Z,33.50
2017-11-15T09:02:26.739Z,32.80
2017-11-15T09:03:26.747Z,32.20
2017-11-15T09:04:26.764Z,33.50
2017-11-15T09:05:26.762Z,32.20
2017-11-15T09:06:26.767Z,32.80
2017-11-15T09:07:26.826Z,33.30
2017-11-15T09:08:26.781Z,34.80
2017-11-15T09:09:26.837Z,35.00
2017-11-15T09:10:26.796Z,32.90
2017-11-15T09:11:26.845Z,33.30
2017-11-15T09:12:26.809Z,30.80
2017-11-15T09:13:26.867Z,32.10
2017-11-15T09:14:26.825Z,31.70
2017-11-15T09:15:26.835Z,31.50
2017-11-15T09:16:26.893Z,31.70
2017-11-15T09:17:26.851Z,31.30
2017-11-15T09:18:26.906Z,32.30
2017-11-15T09:19:26.864Z,31.60
2017-11-15T09:20:26.909Z,32.70
2017-11-15T09:21:26.882Z,32.10
2017-11-15T09:22:27.949Z,32.40
2017-11-15T09:23:26.890Z,31.90
2017-11-15T09:24:32.674Z,33.20
2017-11-15T09:25:26.905Z,31.70
2017-11-15T09:26:26.959Z,31.90
2017-11-15T09:27:26.966Z,32.20
2017-11-15T09:28:29.011Z,32.90
2017-11-15T09:29:26.941Z,32.40
2017-11-15T09:30:31.677Z,31.40
2017-11-15T09:31:26.949Z,32.00
2017-11-15T09:32:26.975Z,32.00
2017-11-15T09:33:26.966Z,32.40
2017-11-15T09:34:27.077Z,32.50
2017-11-15T09:35:26.978Z,32.20
2017-11-15T09:36:27.087Z,32.30
2017-11-15T09:37:26.991Z,32.20
2017-11-15T09:38:27.104Z,32.10
2017-11-15T09:39:27.004Z,32.40
2017-11-15T09:40:27.116Z,32.30
2017-11-15T09:41:27.021Z,32.20
2017-11-15T09:42:27.130Z,32.80
2017-11-15T09:43:27.037Z,31.80
2017-11-15T09:44:27.143Z,31.10
2017-11-15T09:45:27.058Z,33.10
2017-11-15T09:46:27.082Z,32.90
2017-11-15T09:47:27.071Z,33.30
2017-11-15T09:48:27.083Z,31.90
2017-11-15T09:49:27.081Z,32.50
2017-11-15T09:50:27.203Z,34.20
2017-11-15T09:51:27.096Z,31.50
2017-11-15T09:52:27.106Z,33.00
2017-11-15T09:53:27.110Z,34.00
2017-11-15T09:54:27.232Z,32.10
2017-11-15T09:55:27.160Z,32.80
2017-11-15T09:56:27.262Z,32.40
2017-11-15T09:57:27.147Z,34.60
2017-11-15T09:58:28.181Z,32.80
2017-11-15T09:59:27.162Z,33.40
2017-11-15T10:00:28.195Z,32.80
2017-11-15T10:01:27.175Z,33.50
2017-11-15T10:02:28.205Z,33.70
2017-11-15T10:03:27.191Z,33.90
2017-11-15T10:04:28.227Z,34.20
2017-11-15T10:05:27.204Z,33.20
2017-11-15T10:06:27.315Z,31.80
2017-11-15T10:07:27.209Z,32.80
2017-11-15T10:08:28.252Z,33.00
2017-11-15T10:09:27.235Z,33.20
2017-11-15T10:10:27.360Z,33.10
2017-11-15T10:11:27.245Z,33.00
2017-11-15T10:12:27.360Z,32.50
2017-11-15T10:13:27.260Z,32.20
2017-11-15T10:14:27.374Z,33.30
2017-11-15T10:15:27.272Z,33.80
2017-11-15T10:16:27.385Z,33.40
2017-11-15T10:17:27.288Z,33.20
2017-11-15T10:18:27.398Z,33.20
2017-11-15T10:19:27.305Z,32.90
2017-11-15T10:20:27.413Z,32.90
2017-11-15T10:21:27.325Z,33.00
2017-11-15T10:22:27.323Z,32.10
2017-11-15T10:23:27.330Z,31.50
2017-11-15T10:24:27.440Z,32.90
2017-11-15T10:25:27.373Z,32.60
2017-11-15T10:26:27.455Z,31.80
2017-11-15T10:27:27.353Z,31.20
2017-11-15T10:28:27.461Z,31.50
2017-11-15T10:29:27.374Z,33.10
2017-11-15T10:30:27.476Z,32.00
2017-11-15T10:31:27.389Z,31.20
2017-11-15T10:32:27.395Z,30.10
2017-11-15T10:33:27.408Z,31.40
2017-11-15T10:34:27.413Z,30.70
2017-11-15T10:35:27.514Z,31.00
2017-11-15T10:36:27.423Z,31.30
2017-11-15T10:37:27.530Z,30.00
2017-11-15T10:38:27.452Z,30.30
2017-11-15T10:39:27.448Z,31.20
2017-11-15T10:40:27.552Z,29.60
2017-11-15T10:41:27.467Z,31.10
2017-11-15T10:42:27.560Z,29.60
2017-11-15T10:43:27.480Z,30.00
2017-11-15T10:44:27.571Z,30.60
2017-11-15T10:45:27.496Z,30.10
2017-11-15T10:46:27.562Z,31.10
2017-11-15T10:47:27.500Z,30.30
2017-11-15T10:48:27.593Z,29.80
2017-11-15T10:49:27.521Z,28.40
2017-11-15T10:50:27.551Z,28.80
2017-11-15T10:51:27.539Z,29.10
2017-11-15T10:52:27.563Z,28.80
2017-11-15T10:53:27.547Z,29.20
2017-11-15T10:54:27.582Z,28.50
2017-11-15T10:55:27.567Z,29.50
2017-11-15T10:56:27.573Z,28.90
2017-11-15T10:57:27.596Z,27.80
2017-11-15T10:58:27.589Z,27.80
2017-11-15T10:59:27.609Z,27.60
2017-11-15T11:00:27.599Z,28.30
2017-11-15T11:01:27.624Z,28.00
2017-11-15T11:02:27.618Z,28.00
2017-11-15T11:03:27.706Z,28.10
2017-11-15T11:04:27.626Z,27.50
2017-11-15T11:05:27.736Z,26.90
2017-11-15T11:06:27.641Z,27.90
2017-11-15T11:07:34.689Z,27.60
2017-11-15T11:08:27.656Z,27.80
2017-11-15T11:09:29.786Z,27.80
2017-11-15T11:10:27.670Z,27.60
2017-11-15T11:11:32.703Z,27.00
2017-11-15T11:12:27.724Z,27.10
2017-11-15T11:13:33.705Z,27.70
2017-11-15T11:14:27.705Z,28.10
2017-11-15T11:15:27.779Z,27.30
2017-11-15T11:16:27.718Z,27.50
2017-11-15T11:17:29.841Z,28.00
2017-11-15T11:18:27.737Z,27.10
2017-11-15T11:19:28.852Z,27.20
2017-11-15T11:20:27.747Z,27.50
2017-11-15T11:21:27.892Z,27.90
2017-11-15T11:22:27.764Z,28.30
2017-11-15T11:23:28.950Z,28.40
2017-11-15T11:24:27.773Z,27.10
2017-11-15T11:25:27.860Z,26.10
2017-11-15T11:26:27.800Z,27.50
2017-11-15T11:27:27.827Z,27.90
2017-11-15T11:28:27.808Z,28.50
2017-11-15T11:29:27.844Z,27.20
2017-11-15T11:30:27.819Z,27.20
2017-11-15T11:31:27.856Z,28.20
2017-11-15T11:32:27.833Z,28.80
2017-11-15T11:33:27.870Z,28.60
2017-11-15T11:34:27.845Z,28.60
2017-11-15T11:35:27.885Z,27.70
2017-11-15T11:36:27.867Z,28.20
2017-11-15T11:37:27.901Z,27.20
2017-11-15T11:38:27.892Z,29.00
2017-11-15T11:39:27.914Z,27.70
2017-11-15T11:40:27.901Z,27.40
2017-11-15T11:41:27.925Z,28.20
2017-11-15T11:42:27.917Z,28.50
2017-11-15T11:43:28.005Z,27.90
2017-11-15T11:44:27.930Z,27.40
2017-11-15T11:45:28.007Z,28.70
2017-11-15T11:46:27.990Z,28.70
2017-11-15T11:47:29.020Z,29.30
2017-11-15T11:48:27.969Z,30.00
2017-11-15T11:49:34.664Z,29.30
2017-11-15T11:50:27.975Z,28.60
2017-11-15T11:51:34.677Z,28.20
2017-11-15T11:52:27.992Z,26.80
2017-11-15T11:53:28.028Z,28.30
2017-11-15T11:54:28.018Z,28.30
2017-11-15T11:55:30.095Z,27.80
2017-11-15T11:56:28.031Z,27.90
2017-11-15T11:57:28.060Z,28.50
2017-11-15T11:58:28.038Z,27.90
2017-11-15T11:59:29.128Z,28.20
2017-11-15T12:00:28.057Z,26.70
2017-11-15T12:01:30.147Z,26.10
2017-11-15T12:02:28.066Z,27.00
2017-11-15T12:03:32.711Z,25.30
2017-11-15T12:04:28.080Z,27.00
2017-11-15T12:05:29.170Z,26.60
2017-11-15T12:06:28.100Z,26.70
2017-11-15T12:07:28.201Z,27.30
2017-11-15T12:08:28.115Z,26.50
2017-11-15T12:09:37.225Z,27.10
2017-11-15T12:10:28.121Z,26.00
2017-11-15T12:11:29.156Z,26.00
2017-11-15T12:12:28.144Z,26.60
2017-11-15T12:13:28.235Z,26.60
2017-11-15T12:14:28.158Z,25.20
2017-11-15T12:15:28.253Z,24.90
2017-11-15T12:16:28.168Z,25.90
2017-11-15T12:17:29.301Z,25.90
2017-11-15T12:18:28.186Z,26.00
2017-11-15T12:19:29.315Z,26.80
2017-11-15T12:20:28.205Z,25.70
2017-11-15T12:21:28.210Z,24.60
2017-11-15T12:22:28.392Z,24.50
2017-11-15T12:23:28.241Z,24.10
2017-11-15T12:24:28.319Z,25.70
2017-11-15T12:25:28.241Z,24.80
2017-11-15T12:26:28.345Z,25.20
2017-11-15T12:27:28.253Z,26.60
2017-11-15T12:28:28.353Z,24.60
2017-11-15T12:29:28.273Z,26.00
2017-11-15T12:30:28.366Z,25.40
2017-11-15T12:31:28.287Z,24.70
2017-11-15T12:32:28.381Z,24.20
2017-11-15T12:33:28.300Z,25.20
2017-11-15T12:34:28.397Z,25.10
2017-11-15T12:35:28.321Z,24.70
2017-11-15T12:36:28.320Z,24.10
2017-11-15T12:37:28.406Z,24.90
2017-11-15T12:38:28.333Z,24.70
2017-11-15T12:39:28.425Z,25.00
2017-11-15T12:40:28.348Z,28.60
2017-11-15T12:41:28.440Z,28.80
2017-11-15T12:42:28.366Z,26.00
2017-11-15T12:43:28.451Z,26.90
2017-11-15T12:44:28.383Z,32.60
2017-11-15T12:45:28.467Z,28.90
2017-11-15T12:46:28.392Z,27.10
2017-11-15T12:47:28.478Z,26.60
2017-11-15T12:48:28.405Z,29.70
2017-11-15T12:49:28.501Z,27.10
2017-11-15T12:50:28.424Z,28.30
2017-11-15T12:51:28.437Z,27.50
2017-11-15T12:52:28.513Z,27.20
2017-11-15T12:53:28.443Z,25.40
2017-11-15T12:54:28.524Z,26.30
2017-11-15T12:55:28.459Z,25.30
2017-11-15T12:56:28.548Z,26.10
2017-11-15T12:57:28.476Z,23.80
2017-11-15T12:58:28.509Z,23.50
2017-11-15T12:59:28.567Z,24.20
2017-11-15T13:00:28.501Z,25.00
2017-11-15T13:01:28.574Z,25.40
2017-11-15T13:02:28.545Z,25.30
2017-11-15T13:03:28.521Z,25.10
2017-11-15T13:04:28.528Z,23.50
2017-11-15T15:50:16.043Z,31.10
2017-11-15T15:51:14.990Z,33.90
2017-11-15T15:53:08.294Z,32.60
2017-11-15T15:54:08.311Z,32.50
2017-11-15T15:55:08.305Z,32.90
2017-11-15T15:56:08.308Z,33.20
2017-11-15T15:57:08.323Z,32.10
2017-11-15T15:58:08.326Z,33.20
2017-11-15T15:59:08.328Z,31.20
2017-11-15T16:00:08.341Z,31.80
2017-11-15T16:01:08.344Z,31.40
2017-11-15T16:02:08.350Z,32.10
2017-11-15T16:03:08.371Z,33.30
2017-11-15T16:04:08.377Z,31.90
2017-11-15T16:05:08.389Z,33.40
2017-11-15T16:06:08.482Z,32.90
2017-11-15T16:07:08.402Z,32.60
2017-11-15T16:08:08.489Z,34.80
2017-11-15T16:09:08.429Z,33.40
2017-11-15T16:10:08.425Z,33.50
2017-11-15T16:11:08.512Z,34.30
2017-11-15T16:12:08.451Z,34.20
2017-11-15T16:13:08.531Z,33.80
2017-11-15T16:14:08.465Z,35.00
2017-11-15T16:15:08.543Z,35.10
2017-11-15T16:16:08.482Z,33.70
2017-11-15T16:17:08.552Z,34.00
2017-11-15T16:18:08.496Z,32.80
2017-11-15T16:19:09.595Z,34.90
2017-11-15T16:20:08.514Z,34.00
2017-11-15T16:21:08.584Z,35.00
2017-11-15T16:22:08.536Z,35.10
2017-11-15T16:23:08.587Z,33.50
2017-11-15T16:24:08.551Z,34.50
2017-11-15T16:25:08.569Z,33.50
2017-11-15T16:26:08.609Z,32.80
2017-11-15T16:27:08.597Z,35.20
2017-11-15T16:28:08.586Z,33.10
2017-11-15T16:29:08.598Z,33.80
2017-11-15T16:30:08.616Z,31.80
2017-11-15T16:31:08.615Z,33.60
2017-11-15T16:32:08.623Z,34.60
2017-11-15T16:33:08.628Z,33.80
2017-11-15T16:34:08.653Z,31.90
2017-11-15T16:35:08.677Z,33.60
2017-11-15T16:36:08.769Z,34.70
2017-11-15T16:37:08.671Z,34.80
2017-11-15T16:38:08.781Z,36.80
2017-11-15T16:39:08.686Z,36.60
2017-11-15T16:40:08.794Z,36.30
2017-11-15T16:41:08.701Z,35.80
2017-11-15T16:42:08.707Z,34.40
2017-11-15T16:43:08.826Z,35.80
2017-11-15T16:44:08.732Z,34.60
2017-11-15T16:45:08.736Z,33.70
2017-11-15T16:46:08.820Z,32.90
2017-11-15T16:47:08.750Z,32.80
2017-11-15T16:48:08.890Z,34.30
2017-11-15T16:49:08.770Z,34.80
2017-11-15T16:50:08.782Z,34.70
2017-11-15T16:51:08.815Z,34.20
2017-11-15T16:52:08.799Z,34.80
2017-11-15T16:53:08.809Z,35.30
2017-11-15T16:54:08.866Z,35.00
2017-11-15T16:55:08.819Z,34.10
2017-11-15T16:56:08.826Z,33.20
2017-11-15T16:57:08.846Z,33.50
2017-11-15T16:58:09.952Z,33.20
2017-11-15T16:59:08.851Z,32.40
2017-11-15T17:00:08.915Z,32.40
2017-11-15T17:01:08.867Z,31.90
2017-11-15T17:02:08.885Z,32.00
2017-11-15T17:03:08.950Z,31.50
2017-11-15T17:04:08.896Z,31.90
2017-11-15T17:05:08.902Z,33.70
2017-11-15T17:06:08.916Z,32.20
2017-11-15T17:07:08.967Z,33.80
2017-11-15T17:08:08.930Z,34.50
2017-11-15T17:09:08.931Z,33.80
2017-11-15T17:10:08.944Z,34.30
2017-11-15T17:11:08.954Z,34.70
2017-11-15T17:12:08.972Z,34.10
2017-11-15T17:13:08.980Z,33.70
2017-11-15T17:14:08.997Z,34.00
2017-11-15T17:15:08.989Z,33.00
2017-11-15T17:16:08.993Z,32.30
2017-11-15T17:17:09.011Z,32.60
2017-11-15T17:18:09.008Z,31.60
2017-11-15T17:19:09.024Z,32.90
2017-11-15T17:20:09.026Z,34.40
2017-11-15T17:21:09.034Z,34.80
2017-11-15T17:22:09.153Z,36.30
2017-11-15T17:23:09.059Z,36.80
2017-11-15T17:24:09.067Z,35.70
2017-11-15T17:25:09.173Z,33.50
2017-11-15T17:26:09.082Z,35.50
2017-11-15T17:27:09.191Z,34.80
2017-11-15T17:28:09.129Z,32.30
2017-11-15T17:29:09.120Z,33.50
2017-11-15T17:30:10.226Z,31.80
2017-11-15T17:31:09.129Z,32.60
2017-11-15T17:32:09.219Z,30.70
2017-11-15T17:33:09.138Z,31.50
2017-11-15T17:34:10.269Z,31.90
2017-11-15T17:35:09.160Z,30.40
2017-11-15T17:36:11.194Z,31.70
2017-11-15T17:37:09.185Z,30.70
2017-11-15T17:38:10.312Z,33.30
2017-11-15T17:39:09.193Z,32.60
2017-11-15T17:40:09.276Z,33.00
2017-11-15T17:41:09.210Z,32.70
2017-11-15T17:42:09.289Z,33.90
2017-11-15T17:43:09.229Z,32.30
2017-11-15T17:44:10.331Z,31.40
2017-11-15T17:45:09.244Z,32.70
2017-11-15T17:46:10.344Z,32.20
2017-11-15T17:47:09.261Z,32.30
2017-11-15T17:48:09.320Z,30.70
2017-11-15T17:49:09.282Z,31.10
2017-11-15T17:50:09.336Z,31.50
2017-11-15T17:51:09.295Z,30.90
2017-11-15T17:52:09.319Z,31.30
2017-11-15T17:53:09.317Z,31.30
2017-11-15T17:54:09.329Z,30.60
2017-11-15T17:55:09.330Z,31.40
2017-11-15T17:56:09.385Z,32.50
2017-11-15T17:57:09.345Z,30.90
2017-11-15T17:58:09.398Z,29.70
2017-11-15T17:59:09.359Z,30.20
2017-11-15T18:00:09.370Z,29.40
2017-11-15T18:01:09.380Z,30.10
2017-11-15T18:02:09.384Z,30.30
2017-11-15T18:03:09.433Z,30.00
2017-11-15T18:04:09.412Z,29.70
2017-11-15T18:05:09.414Z,29.00
2017-11-15T18:06:09.453Z,30.30
2017-11-15T18:07:09.425Z,31.20
2017-11-15T18:08:09.592Z,30.90
2017-11-15T18:09:09.448Z,30.00
2017-11-15T18:10:09.481Z,31.00
2017-11-15T18:11:09.461Z,30.60
2017-11-15T18:12:09.494Z,29.80
2017-11-15T18:13:09.485Z,30.50
2017-11-15T18:14:09.485Z,30.60
2017-11-15T18:15:09.489Z,30.40
2017-11-15T18:16:09.506Z,29.50
2017-11-15T18:17:11.587Z,30.10
2017-11-15T18:18:09.521Z,30.30
2017-11-15T18:19:09.540Z,29.30
2017-11-15T18:20:09.543Z,28.60
2017-11-15T18:21:09.579Z,28.00
2017-11-15T18:22:09.668Z,29.30
2017-11-15T18:23:09.561Z,30.20
2017-11-15T18:24:09.632Z,29.20
2017-11-15T18:25:09.584Z,30.10
2017-11-15T18:26:09.642Z,32.30
2017-11-15T18:27:09.592Z,33.90
2017-11-15T18:28:09.655Z,31.70
2017-11-15T18:29:09.608Z,32.20
2017-11-15T18:30:09.669Z,37.50
2017-11-15T18:31:09.625Z,30.10
2017-11-15T18:32:09.687Z,30.10
2017-11-15T18:33:09.674Z,29.40
2017-11-15T18:34:09.657Z,29.90
2017-11-15T18:35:09.708Z,29.80
2017-11-15T18:36:09.674Z,28.90
2017-11-15T18:37:09.719Z,29.10
2017-11-15T18:38:09.683Z,28.30
2017-11-15T18:39:09.760Z,28.80
2017-11-15T18:40:09.708Z,28.50
2017-11-15T18:41:09.798Z,27.20
2017-11-15T18:42:09.726Z,27.40
2017-11-15T18:43:09.806Z,27.60
2017-11-15T18:44:09.737Z,28.70
2017-11-15T18:45:09.819Z,28.20
2017-11-15T18:46:09.757Z,29.40
2017-11-15T18:47:09.883Z,30.80
2017-11-15T18:48:09.771Z,34.50
2017-11-15T18:49:09.848Z,33.70
2017-11-15T18:50:09.788Z,34.80
2017-11-15T18:51:09.861Z,34.70
2017-11-15T18:52:09.815Z,32.90
2017-11-15T18:53:09.878Z,33.50
2017-11-15T18:54:09.818Z,34.00
2017-11-15T18:55:09.830Z,32.20
2017-11-15T18:56:09.839Z,32.60
2017-11-15T18:57:09.899Z,34.90
2017-11-15T18:58:09.858Z,32.40
2017-11-15T18:59:09.913Z,31.60
2017-11-15T19:00:09.871Z,30.60
2017-11-15T19:01:09.928Z,31.30
2017-11-15T19:02:09.883Z,28.40
2017-11-15T19:03:09.943Z,28.80
2017-11-15T19:04:09.897Z,28.20
2017-11-15T19:05:09.980Z,28.10
2017-11-15T19:06:09.918Z,28.80
2017-11-15T19:07:09.970Z,29.20
2017-11-15T19:08:09.946Z,29.30
2017-11-15T19:09:09.976Z,28.70
2017-11-15T19:10:09.943Z,27.70
2017-11-15T19:11:09.994Z,26.80
2017-11-15T19:12:09.986Z,27.80
2017-11-15T19:13:10.005Z,27.50
2017-11-15T19:14:09.979Z,29.00
2017-11-15T19:15:10.023Z,29.60
2017-11-15T19:16:10.006Z,28.80
2017-11-15T19:17:10.033Z,28.60
2017-11-15T19:18:10.020Z,28.50
2017-11-15T19:19:10.050Z,29.20
2017-11-15T19:20:10.049Z,28.00
2017-11-15T19:21:10.064Z,26.70
2017-11-15T19:22:10.050Z,27.60
2017-11-15T19:23:10.080Z,28.30
2017-11-15T19:24:10.066Z,28.00
2017-11-15T19:25:10.094Z,27.30
2017-11-15T19:26:10.082Z,28.40
2017-11-15T19:27:10.108Z,28.10
2017-11-15T19:28:10.099Z,27.00
2017-11-15T19:29:10.222Z,28.30
2017-11-15T19:30:10.112Z,28.10
2017-11-15T19:31:10.237Z,27.70
2017-11-15T19:32:10.134Z,25.00
2017-11-15T19:33:10.269Z,25.50
2017-11-15T19:34:10.152Z,26.50
2017-11-15T19:35:10.157Z,26.90
2017-11-15T19:36:10.166Z,24.80
2017-11-15T19:37:10.278Z,24.90
2017-11-15T19:38:10.183Z,26.70
2017-11-15T19:39:10.287Z,26.20
2017-11-15T19:40:10.200Z,25.80
2017-11-15T19:41:10.306Z,27.10
2017-11-15T19:42:10.214Z,26.90
2017-11-15T19:43:10.229Z,27.60
2017-11-15T19:44:10.230Z,26.80
2017-11-15T19:45:10.350Z,26.80
2017-11-15T19:46:10.298Z,27.10
2017-11-15T19:47:10.278Z,26.50
2017-11-15T19:48:10.265Z,25.60
2017-11-15T19:49:10.299Z,25.60
2017-11-15T19:50:10.281Z,26.30
2017-11-15T19:51:10.312Z,27.60
2017-11-15T19:52:10.295Z,28.40
2017-11-15T19:53:10.320Z,29.70
2017-11-15T19:54:10.312Z,26.60
2017-11-15T19:55:10.350Z,26.40
2017-11-15T19:56:10.337Z,26.80
2017-11-15T19:57:10.361Z,25.70
2017-11-15T19:58:10.356Z,26.90
2017-11-15T19:59:10.356Z,26.10
2017-11-15T20:00:10.362Z,26.90
2017-11-15T20:01:10.386Z,26.20
2017-11-15T20:02:10.378Z,25.90
2017-11-15T20:03:10.400Z,25.90
2017-11-15T20:04:10.397Z,25.50
2017-11-15T20:05:10.411Z,25.40
2017-11-15T20:06:10.407Z,25.40
2017-11-15T20:07:10.420Z,25.40
2017-11-15T20:08:10.424Z,24.90
2017-11-15T20:09:10.541Z,25.10
2017-11-15T20:10:10.445Z,24.80
2017-11-15T20:11:10.555Z,24.30
2017-11-15T20:12:10.457Z,24.60
2017-11-15T20:13:10.572Z,25.70
2017-11-15T20:14:10.472Z,28.50
2017-11-15T20:15:10.486Z,28.20
2017-11-15T20:16:10.496Z,28.30
2017-11-15T20:17:10.603Z,30.10
2017-11-15T20:18:10.510Z,27.10
2017-11-15T20:19:10.601Z,26.70
2017-11-15T20:20:10.526Z,26.40
2017-11-15T20:21:10.615Z,24.60
2017-11-15T20:22:10.536Z,23.60
2017-11-15T20:23:10.621Z,24.90
2017-11-15T20:24:10.559Z,23.40
2017-11-15T20:25:10.648Z,23.50
2017-11-15T20:26:10.595Z,22.30
2017-11-15T20:27:10.660Z,23.60
2017-11-15T20:28:10.587Z,23.40
2017-11-15T20:29:10.667Z,22.30
2017-11-15T20:30:10.605Z,22.10
2017-11-15T20:31:10.655Z,22.90
2017-11-15T20:32:10.617Z,22.00
2017-11-15T20:33:10.667Z,22.20
2017-11-15T20:34:10.639Z,21.60
2017-11-15T20:35:10.683Z,21.80
2017-11-15T20:36:10.652Z,20.80
2017-11-15T20:37:10.696Z,21.90
2017-11-15T20:38:10.671Z,20.40
2017-11-15T20:39:10.708Z,21.50
2017-11-15T20:40:10.688Z,22.10
2017-11-15T20:41:10.824Z,21.50
2017-11-15T20:42:10.702Z,20.60
2017-11-15T20:43:10.851Z,20.80
2017-11-15T20:44:10.753Z,21.20
2017-11-15T20:45:11.786Z,20.80
2017-11-15T20:46:10.735Z,20.60
2017-11-15T20:47:10.774Z,20.80
2017-11-15T20:48:10.753Z,20.80
2017-11-15T20:49:10.891Z,20.70
2017-11-15T20:50:10.780Z,19.90
2017-11-15T20:51:10.902Z,20.30
2017-11-15T20:52:10.784Z,20.30
2017-11-15T20:53:10.917Z,20.70
2017-11-15T20:54:10.810Z,20.60
2017-11-15T20:55:10.929Z,21.20
2017-11-15T20:56:10.821Z,21.40
2017-11-15T20:57:10.943Z,20.10
2017-11-15T20:58:10.837Z,23.00
2017-11-15T20:59:10.861Z,20.70
2017-11-15T21:00:10.959Z,20.00
2017-11-15T21:01:10.858Z,20.60
2017-11-15T21:02:10.979Z,19.40
2017-11-15T21:03:10.880Z,19.50
2017-11-15T21:04:10.990Z,20.10
2017-11-15T21:05:10.890Z,19.30
2017-11-15T21:06:11.002Z,20.60
2017-11-15T21:07:10.908Z,19.00
2017-11-15T21:08:11.016Z,19.60
2017-11-15T21:09:10.925Z,21.00
2017-11-15T21:10:11.033Z,21.00
2017-11-15T21:11:10.937Z,21.50
2017-11-15T21:12:11.049Z,20.70
2017-11-15T21:13:10.949Z,20.70
2017-11-15T21:14:10.960Z,20.30
2017-11-15T21:15:11.047Z,20.50
2017-11-15T21:16:10.985Z,20.70
2017-11-15T21:17:11.112Z,20.00
2017-11-15T21:18:10.996Z,20.60
2017-11-15T21:19:11.000Z,20.40
2017-11-15T21:20:11.015Z,19.90
2017-11-15T21:21:11.021Z,20.20
2017-11-15T21:22:11.029Z,18.90
2017-11-15T21:23:11.040Z,21.10
2017-11-15T21:24:11.044Z,20.00
2017-11-15T21:25:11.045Z,19.80
2017-11-15T21:26:11.058Z,20.00
2017-11-15T21:27:11.181Z,19.50
2017-11-15T21:28:11.067Z,19.80
2017-11-15T21:29:11.194Z,20.00
2017-11-15T21:30:11.089Z,20.40
2017-11-15T21:31:11.206Z,20.70
2017-11-15T21:32:11.115Z,22.30
2017-11-15T21:33:11.220Z,21.20
2017-11-15T21:34:11.118Z,21.50
2017-11-15T21:35:11.246Z,21.30
2017-11-15T21:36:11.142Z,21.10
2017-11-15T21:37:11.258Z,22.30
2017-11-15T21:38:11.156Z,23.00
2017-11-15T21:39:11.158Z,22.80
2017-11-15T21:40:11.281Z,24.20
2017-11-15T21:41:11.183Z,23.40
2017-11-15T21:42:11.301Z,23.20
2017-11-15T21:43:11.193Z,23.00
2017-11-15T21:44:11.201Z,22.30
2017-11-15T21:45:11.213Z,22.80
2017-11-15T21:46:11.320Z,22.60
2017-11-15T21:47:11.234Z,23.00
2017-11-15T21:48:11.434Z,23.00
2017-11-15T21:49:11.244Z,23.20
2017-11-15T21:50:11.447Z,24.60
2017-11-15T21:51:11.258Z,23.80
2017-11-15T21:52:11.464Z,22.10
2017-11-15T21:53:11.280Z,22.60
2017-11-15T21:54:11.420Z,23.90
2017-11-15T21:55:11.300Z,24.50
2017-11-15T21:56:11.438Z,24.10
2017-11-15T21:57:11.309Z,23.40
2017-11-15T21:58:11.508Z,23.60
2017-11-15T21:59:11.320Z,23.60
2017-11-15T22:00:11.527Z,24.30
2017-11-15T22:01:11.341Z,22.50
2017-11-15T22:02:11.356Z,23.10
2017-11-15T22:03:11.354Z,23.40
2017-11-15T22:04:11.550Z,23.00
2017-11-15T22:05:11.371Z,24.20
2017-11-15T22:06:11.379Z,23.80
2017-11-15T22:07:11.386Z,24.00
2017-11-15T22:08:11.395Z,23.80
2017-11-15T22:09:11.405Z,23.70
2017-11-15T22:10:11.412Z,24.50
2017-11-15T22:11:11.418Z,24.70
2017-11-15T22:12:11.433Z,25.30
2017-11-15T22:13:11.613Z,24.40
2017-11-15T22:14:11.440Z,24.80
2017-11-15T22:15:11.626Z,25.50
2017-11-15T22:16:11.460Z,25.20
2017-11-15T22:17:11.468Z,26.00
2017-11-15T22:18:11.476Z,26.30
2017-11-15T22:19:11.655Z,26.60
2017-11-15T22:20:11.488Z,24.90
2017-11-15T22:21:11.498Z,26.10
2017-11-15T22:22:11.681Z,26.80
2017-11-15T22:23:11.553Z,26.50
2017-11-15T22:24:11.686Z,26.50
2017-11-15T22:25:11.544Z,24.30
2017-11-15T22:26:11.540Z,25.60
2017-11-15T22:27:11.712Z,26.30
2017-11-15T22:28:11.553Z,25.90
2017-11-15T22:29:11.718Z,26.40
2017-11-15T22:30:11.570Z,26.40
2017-11-15T22:31:11.632Z,25.70
2017-11-15T22:32:11.588Z,25.90
2017-11-15T22:33:11.646Z,25.40
2017-11-15T22:34:11.605Z,25.90
2017-11-15T22:35:11.658Z,25.80
2017-11-15T22:36:11.612Z,27.00
2017-11-15T22:37:11.672Z,28.60
2017-11-15T22:38:11.623Z,29.10
2017-11-15T22:39:11.773Z,28.40
2017-11-15T22:40:11.644Z,28.50
2017-11-15T22:41:11.652Z,27.10
2017-11-15T22:42:11.663Z,27.70
2017-11-15T22:43:11.670Z,27.00